sensor_id;sensor_type;location;lat;lon;timestamp;P1;durP1;ratioP1;P2;durP2;ratioP2
13708;SDS011;54933;51.908;7.730;2023-06-22T00:01:15;1.00;;;0.90;;
13708;SDS011;54933;51.908;7.730;2023-06-22T00:03:41;1.30;;;0.90;;
13708;SDS011;54933;51.908;7.730;2023-06-22T00:06:06;1.50;;;1.40;;
13708;SDS011;54933;51.908;7.730;2023-06-22T00:08:31;1.27;;;1.17;;
13708;SDS011;54933;51.908;7.730;2023-06-22T00:10:57;1.03;;;0.93;;
13708;SDS011;54933;51.908;7.730;2023-06-22T00:13:22;1.80;;;1.47;;
13708;SDS011;54933;51.908;7.730;2023-06-22T00:15:47;1.47;;;1.37;;
13708;SDS011;54933;51.908;7.730;2023-06-22T00:18:12;1.93;;;1.00;;
13708;SDS011;54933;51.908;7.730;2023-06-22T00:20:38;1.93;;;1.50;;
13708;SDS011;54933;51.908;7.730;2023-06-22T00:23:05;1.20;;;1.20;;
13708;SDS011;54933;51.908;7.730;2023-06-22T00:25:31;1.47;;;1.30;;
13708;SDS011;54933;51.908;7.730;2023-06-22T00:27:56;1.10;;;1.10;;
13708;SDS011;54933;51.908;7.730;2023-06-22T00:30:22;1.03;;;1.03;;
13708;SDS011;54933;51.908;7.730;2023-06-22T00:32:47;1.67;;;1.17;;
13708;SDS011;54933;51.908;7.730;2023-06-22T00:35:12;1.13;;;1.10;;
13708;SDS011;54933;51.908;7.730;2023-06-22T00:37:38;1.27;;;1.13;;
13708;SDS011;54933;51.908;7.730;2023-06-22T00:40:07;1.03;;;1.03;;
13708;SDS011;54933;51.908;7.730;2023-06-22T00:42:33;1.00;;;1.00;;
13708;SDS011;54933;51.908;7.730;2023-06-22T00:44:59;1.10;;;1.10;;
13708;SDS011;54933;51.908;7.730;2023-06-22T00:47:24;1.17;;;1.10;;
13708;SDS011;54933;51.908;7.730;2023-06-22T00:49:49;1.03;;;1.00;;
13708;SDS011;54933;51.908;7.730;2023-06-22T00:52:21;1.33;;;1.23;;
13708;SDS011;54933;51.908;7.730;2023-06-22T00:54:52;1.07;;;1.07;;
13708;SDS011;54933;51.908;7.730;2023-06-22T00:57:18;1.10;;;1.00;;
13708;SDS011;54933;51.908;7.730;2023-06-22T00:59:45;1.20;;;1.10;;
13708;SDS011;54933;51.908;7.730;2023-06-22T01:02:12;1.93;;;1.43;;
13708;SDS011;54933;51.908;7.730;2023-06-22T01:04:38;1.47;;;1.37;;
13708;SDS011;54933;51.908;7.730;2023-06-22T01:09:51;1.43;;;0.93;;
13708;SDS011;54933;51.908;7.730;2023-06-22T01:12:24;1.57;;;0.87;;
13708;SDS011;54933;51.908;7.730;2023-06-22T01:14:55;1.60;;;1.10;;
13708;SDS011;54933;51.908;7.730;2023-06-22T01:17:26;1.30;;;1.20;;
13708;SDS011;54933;51.908;7.730;2023-06-22T01:19:54;1.13;;;1.10;;
13708;SDS011;54933;51.908;7.730;2023-06-22T01:22:21;1.40;;;1.13;;
13708;SDS011;54933;51.908;7.730;2023-06-22T01:30:10;1.33;;;1.23;;
13708;SDS011;54933;51.908;7.730;2023-06-22T01:32:37;1.27;;;1.20;;
13708;SDS011;54933;51.908;7.730;2023-06-22T01:35:05;1.00;;;1.00;;
13708;SDS011;54933;51.908;7.730;2023-06-22T01:37:32;1.10;;;1.10;;
13708;SDS011;54933;51.908;7.730;2023-06-22T01:39:59;1.03;;;1.03;;
13708;SDS011;54933;51.908;7.730;2023-06-22T01:42:26;0.83;;;0.83;;
13708;SDS011;54933;51.908;7.730;2023-06-22T01:44:52;1.20;;;1.10;;
13708;SDS011;54933;51.908;7.730;2023-06-22T01:47:18;1.07;;;1.07;;
13708;SDS011;54933;51.908;7.730;2023-06-22T01:49:48;1.07;;;1.07;;
13708;SDS011;54933;51.908;7.730;2023-06-22T01:52:14;1.80;;;1.00;;
13708;SDS011;54933;51.908;7.730;2023-06-22T01:54:40;1.00;;;0.97;;
13708;SDS011;54933;51.908;7.730;2023-06-22T01:57:05;1.00;;;1.00;;
13708;SDS011;54933;51.908;7.730;2023-06-22T01:59:34;1.10;;;1.10;;
13708;SDS011;54933;51.908;7.730;2023-06-22T02:02:09;1.20;;;1.10;;
13708;SDS011;54933;51.908;7.730;2023-06-22T02:04:54;1.10;;;1.10;;
13708;SDS011;54933;51.908;7.730;2023-06-22T02:07:23;1.10;;;1.10;;
13708;SDS011;54933;51.908;7.730;2023-06-22T02:09:59;1.10;;;1.10;;
13708;SDS011;54933;51.908;7.730;2023-06-22T02:12:25;1.10;;;1.10;;
13708;SDS011;54933;51.908;7.730;2023-06-22T02:14:52;1.20;;;1.20;;
13708;SDS011;54933;51.908;7.730;2023-06-22T02:17:18;0.80;;;0.80;;
13708;SDS011;54933;51.908;7.730;2023-06-22T02:19:44;1.03;;;1.03;;
13708;SDS011;54933;51.908;7.730;2023-06-22T02:22:09;0.80;;;0.80;;
13708;SDS011;54933;51.908;7.730;2023-06-22T02:24:34;1.03;;;1.03;;
13708;SDS011;54933;51.908;7.730;2023-06-22T02:27:00;2.83;;;1.20;;
13708;SDS011;54933;51.908;7.730;2023-06-22T02:29:27;1.10;;;1.10;;
13708;SDS011;54933;51.908;7.730;2023-06-22T02:31:53;0.90;;;0.90;;
13708;SDS011;54933;51.908;7.730;2023-06-22T02:34:19;1.20;;;1.20;;
13708;SDS011;54933;51.908;7.730;2023-06-22T02:36:45;1.30;;;1.20;;
13708;SDS011;54933;51.908;7.730;2023-06-22T02:39:16;1.07;;;1.07;;
13708;SDS011;54933;51.908;7.730;2023-06-22T02:41:48;1.27;;;1.17;;
13708;SDS011;54933;51.908;7.730;2023-06-22T02:44:15;1.57;;;1.20;;
13708;SDS011;54933;51.908;7.730;2023-06-22T02:46:40;1.13;;;1.13;;
13708;SDS011;54933;51.908;7.730;2023-06-22T02:49:05;1.00;;;1.00;;
13708;SDS011;54933;51.908;7.730;2023-06-22T02:51:32;1.20;;;1.20;;
13708;SDS011;54933;51.908;7.730;2023-06-22T02:53:59;1.20;;;1.10;;
13708;SDS011;54933;51.908;7.730;2023-06-22T02:56:24;1.10;;;1.10;;
13708;SDS011;54933;51.908;7.730;2023-06-22T02:58:49;0.80;;;0.80;;
13708;SDS011;54933;51.908;7.730;2023-06-22T03:01:15;1.23;;;1.23;;
13708;SDS011;54933;51.908;7.730;2023-06-22T03:03:40;1.10;;;1.10;;
13708;SDS011;54933;51.908;7.730;2023-06-22T03:06:05;0.90;;;0.90;;
13708;SDS011;54933;51.908;7.730;2023-06-22T03:08:31;0.90;;;0.90;;
13708;SDS011;54933;51.908;7.730;2023-06-22T03:10:56;1.13;;;1.10;;
13708;SDS011;54933;51.908;7.730;2023-06-22T03:13:21;1.03;;;1.03;;
13708;SDS011;54933;51.908;7.730;2023-06-22T03:15:47;1.00;;;1.00;;
13708;SDS011;54933;51.908;7.730;2023-06-22T03:18:12;1.10;;;1.10;;
13708;SDS011;54933;51.908;7.730;2023-06-22T03:20:37;1.00;;;1.00;;
13708;SDS011;54933;51.908;7.730;2023-06-22T03:23:03;1.60;;;1.40;;
13708;SDS011;54933;51.908;7.730;2023-06-22T03:25:28;1.00;;;0.87;;
13708;SDS011;54933;51.908;7.730;2023-06-22T03:27:53;0.90;;;0.90;;
13708;SDS011;54933;51.908;7.730;2023-06-22T03:30:18;0.87;;;0.87;;
13708;SDS011;54933;51.908;7.730;2023-06-22T03:32:44;1.23;;;1.07;;
13708;SDS011;54933;51.908;7.730;2023-06-22T03:35:09;1.63;;;1.10;;
13708;SDS011;54933;51.908;7.730;2023-06-22T03:37:37;0.80;;;0.80;;
13708;SDS011;54933;51.908;7.730;2023-06-22T03:40:02;1.10;;;1.10;;
13708;SDS011;54933;51.908;7.730;2023-06-22T03:42:31;1.57;;;1.20;;
13708;SDS011;54933;51.908;7.730;2023-06-22T03:44:58;1.30;;;1.20;;
13708;SDS011;54933;51.908;7.730;2023-06-22T03:47:25;1.33;;;1.30;;
13708;SDS011;54933;51.908;7.730;2023-06-22T03:49:51;1.03;;;1.03;;
13708;SDS011;54933;51.908;7.730;2023-06-22T03:52:19;1.10;;;1.10;;
13708;SDS011;54933;51.908;7.730;2023-06-22T03:54:45;1.30;;;1.20;;
13708;SDS011;54933;51.908;7.730;2023-06-22T03:57:10;1.10;;;1.10;;
13708;SDS011;54933;51.908;7.730;2023-06-22T03:59:36;1.00;;;1.00;;
13708;SDS011;54933;51.908;7.730;2023-06-22T04:02:01;1.13;;;1.10;;
13708;SDS011;54933;51.908;7.730;2023-06-22T04:04:27;1.00;;;1.00;;
13708;SDS011;54933;51.908;7.730;2023-06-22T04:06:52;1.10;;;1.10;;
13708;SDS011;54933;51.908;7.730;2023-06-22T04:09:18;1.03;;;1.03;;
13708;SDS011;54933;51.908;7.730;2023-06-22T04:11:43;1.00;;;1.00;;
13708;SDS011;54933;51.908;7.730;2023-06-22T04:14:08;1.10;;;1.10;;
13708;SDS011;54933;51.908;7.730;2023-06-22T04:16:34;1.10;;;1.00;;
13708;SDS011;54933;51.908;7.730;2023-06-22T04:18:59;1.10;;;1.10;;
13708;SDS011;54933;51.908;7.730;2023-06-22T04:21:24;1.03;;;1.03;;
13708;SDS011;54933;51.908;7.730;2023-06-22T04:23:49;1.23;;;1.13;;
13708;SDS011;54933;51.908;7.730;2023-06-22T04:26:15;1.23;;;1.13;;
13708;SDS011;54933;51.908;7.730;2023-06-22T04:28:40;1.07;;;1.07;;
13708;SDS011;54933;51.908;7.730;2023-06-22T04:31:06;0.87;;;0.87;;
13708;SDS011;54933;51.908;7.730;2023-06-22T04:33:32;1.10;;;1.10;;
13708;SDS011;54933;51.908;7.730;2023-06-22T04:35:57;1.57;;;0.97;;
13708;SDS011;54933;51.908;7.730;2023-06-22T04:38:24;1.20;;;1.20;;
13708;SDS011;54933;51.908;7.730;2023-06-22T04:40:49;0.80;;;0.80;;
13708;SDS011;54933;51.908;7.730;2023-06-22T04:43:15;0.90;;;0.90;;
13708;SDS011;54933;51.908;7.730;2023-06-22T04:45:41;0.93;;;0.93;;
13708;SDS011;54933;51.908;7.730;2023-06-22T04:48:06;0.87;;;0.87;;
13708;SDS011;54933;51.908;7.730;2023-06-22T04:50:33;1.33;;;1.23;;
13708;SDS011;54933;51.908;7.730;2023-06-22T04:52:58;1.00;;;1.00;;
13708;SDS011;54933;51.908;7.730;2023-06-22T04:55:24;1.23;;;1.23;;
13708;SDS011;54933;51.908;7.730;2023-06-22T04:57:50;2.43;;;1.17;;
13708;SDS011;54933;51.908;7.730;2023-06-22T05:00:16;0.97;;;0.97;;
13708;SDS011;54933;51.908;7.730;2023-06-22T05:02:44;0.90;;;0.90;;
13708;SDS011;54933;51.908;7.730;2023-06-22T05:05:11;1.00;;;1.00;;
13708;SDS011;54933;51.908;7.730;2023-06-22T05:07:39;0.93;;;0.90;;
13708;SDS011;54933;51.908;7.730;2023-06-22T05:10:08;1.10;;;1.10;;
13708;SDS011;54933;51.908;7.730;2023-06-22T05:12:34;0.80;;;0.80;;
13708;SDS011;54933;51.908;7.730;2023-06-22T05:14:59;0.90;;;0.90;;
13708;SDS011;54933;51.908;7.730;2023-06-22T05:17:26;0.80;;;0.80;;
13708;SDS011;54933;51.908;7.730;2023-06-22T05:19:51;1.13;;;1.13;;
13708;SDS011;54933;51.908;7.730;2023-06-22T05:22:17;0.90;;;0.90;;
13708;SDS011;54933;51.908;7.730;2023-06-22T05:24:42;0.90;;;0.90;;
13708;SDS011;54933;51.908;7.730;2023-06-22T05:27:08;1.07;;;1.07;;
13708;SDS011;54933;51.908;7.730;2023-06-22T05:29:33;2.23;;;1.20;;
13708;SDS011;54933;51.908;7.730;2023-06-22T05:32:00;2.33;;;1.40;;
13708;SDS011;54933;51.908;7.730;2023-06-22T05:34:25;154.00;;;15.53;;
13708;SDS011;54933;51.908;7.730;2023-06-22T05:36:51;142.77;;;13.87;;
13708;SDS011;54933;51.908;7.730;2023-06-22T05:39:16;43.93;;;7.70;;
13708;SDS011;54933;51.908;7.730;2023-06-22T05:41:41;47.40;;;6.53;;
13708;SDS011;54933;51.908;7.730;2023-06-22T05:44:08;29.17;;;5.70;;
13708;SDS011;54933;51.908;7.730;2023-06-22T05:46:33;35.80;;;7.27;;
13708;SDS011;54933;51.908;7.730;2023-06-22T05:48:58;45.50;;;6.00;;
13708;SDS011;54933;51.908;7.730;2023-06-22T05:51:24;47.87;;;5.67;;
13708;SDS011;54933;51.908;7.730;2023-06-22T05:53:49;37.73;;;4.43;;
13708;SDS011;54933;51.908;7.730;2023-06-22T05:56:17;36.53;;;4.63;;
13708;SDS011;54933;51.908;7.730;2023-06-22T05:58:43;22.13;;;3.67;;
13708;SDS011;54933;51.908;7.730;2023-06-22T06:01:08;31.80;;;3.73;;
13708;SDS011;54933;51.908;7.730;2023-06-22T06:03:34;18.70;;;3.67;;
13708;SDS011;54933;51.908;7.730;2023-06-22T06:06:06;22.33;;;4.87;;
13708;SDS011;54933;51.908;7.730;2023-06-22T06:08:31;28.00;;;4.13;;
13708;SDS011;54933;51.908;7.730;2023-06-22T06:10:57;21.20;;;3.33;;
13708;SDS011;54933;51.908;7.730;2023-06-22T06:13:22;16.80;;;3.40;;
13708;SDS011;54933;51.908;7.730;2023-06-22T06:15:48;14.17;;;3.30;;
13708;SDS011;54933;51.908;7.730;2023-06-22T06:18:13;27.53;;;4.43;;
13708;SDS011;54933;51.908;7.730;2023-06-22T06:20:38;18.13;;;2.97;;
13708;SDS011;54933;51.908;7.730;2023-06-22T06:23:03;15.33;;;2.90;;
13708;SDS011;54933;51.908;7.730;2023-06-22T06:25:29;9.97;;;2.97;;
13708;SDS011;54933;51.908;7.730;2023-06-22T06:27:54;7.93;;;2.40;;
13708;SDS011;54933;51.908;7.730;2023-06-22T06:30:19;10.43;;;2.10;;
13708;SDS011;54933;51.908;7.730;2023-06-22T06:32:45;11.73;;;2.67;;
13708;SDS011;54933;51.908;7.730;2023-06-22T06:35:11;13.97;;;2.57;;
13708;SDS011;54933;51.908;7.730;2023-06-22T06:37:41;8.70;;;2.00;;
13708;SDS011;54933;51.908;7.730;2023-06-22T06:40:07;16.33;;;2.23;;
13708;SDS011;54933;51.908;7.730;2023-06-22T06:42:39;50.70;;;7.33;;
13708;SDS011;54933;51.908;7.730;2023-06-22T06:45:14;22.13;;;3.80;;
13708;SDS011;54933;51.908;7.730;2023-06-22T06:47:40;30.47;;;5.87;;
13708;SDS011;54933;51.908;7.730;2023-06-22T06:50:06;14.93;;;2.07;;
13708;SDS011;54933;51.908;7.730;2023-06-22T06:52:32;8.07;;;2.07;;
13708;SDS011;54933;51.908;7.730;2023-06-22T06:54:57;7.60;;;2.00;;
13708;SDS011;54933;51.908;7.730;2023-06-22T06:57:23;6.40;;;2.33;;
13708;SDS011;54933;51.908;7.730;2023-06-22T06:59:48;3.70;;;2.00;;
13708;SDS011;54933;51.908;7.730;2023-06-22T07:02:14;3.03;;;1.80;;
13708;SDS011;54933;51.908;7.730;2023-06-22T07:04:40;3.30;;;1.70;;
13708;SDS011;54933;51.908;7.730;2023-06-22T07:07:06;1.70;;;1.60;;
13708;SDS011;54933;51.908;7.730;2023-06-22T07:09:31;2.20;;;1.70;;
13708;SDS011;54933;51.908;7.730;2023-06-22T07:11:56;3.23;;;1.77;;
13708;SDS011;54933;51.908;7.730;2023-06-22T07:14:21;8.40;;;1.63;;
13708;SDS011;54933;51.908;7.730;2023-06-22T07:16:47;2.50;;;1.60;;
13708;SDS011;54933;51.908;7.730;2023-06-22T07:19:12;3.03;;;1.73;;
13708;SDS011;54933;51.908;7.730;2023-06-22T07:21:38;7.57;;;2.73;;
13708;SDS011;54933;51.908;7.730;2023-06-22T07:24:04;3.83;;;1.93;;
13708;SDS011;54933;51.908;7.730;2023-06-22T07:26:30;2.10;;;1.30;;
13708;SDS011;54933;51.908;7.730;2023-06-22T07:28:56;4.73;;;1.70;;
13708;SDS011;54933;51.908;7.730;2023-06-22T07:31:23;2.87;;;1.43;;
13708;SDS011;54933;51.908;7.730;2023-06-22T07:33:49;5.10;;;2.40;;
13708;SDS011;54933;51.908;7.730;2023-06-22T07:36:14;2.20;;;2.00;;
13708;SDS011;54933;51.908;7.730;2023-06-22T07:38:40;3.40;;;1.73;;
13708;SDS011;54933;51.908;7.730;2023-06-22T07:41:05;3.73;;;1.77;;
13708;SDS011;54933;51.908;7.730;2023-06-22T07:43:30;1.43;;;1.33;;
13708;SDS011;54933;51.908;7.730;2023-06-22T07:45:58;2.33;;;1.70;;
13708;SDS011;54933;51.908;7.730;2023-06-22T07:48:23;3.13;;;1.40;;
13708;SDS011;54933;51.908;7.730;2023-06-22T07:50:48;8.67;;;1.77;;
13708;SDS011;54933;51.908;7.730;2023-06-22T07:53:14;1.93;;;1.63;;
13708;SDS011;54933;51.908;7.730;2023-06-22T07:55:39;2.03;;;1.83;;
13708;SDS011;54933;51.908;7.730;2023-06-22T07:58:05;2.80;;;1.40;;
13708;SDS011;54933;51.908;7.730;2023-06-22T08:00:30;1.70;;;1.60;;
13708;SDS011;54933;51.908;7.730;2023-06-22T08:02:55;2.53;;;2.03;;
13708;SDS011;54933;51.908;7.730;2023-06-22T08:05:21;1.77;;;1.67;;
13708;SDS011;54933;51.908;7.730;2023-06-22T08:07:46;2.53;;;1.47;;
13708;SDS011;54933;51.908;7.730;2023-06-22T08:10:12;4.20;;;1.60;;
13708;SDS011;54933;51.908;7.730;2023-06-22T08:12:37;2.40;;;1.70;;
13708;SDS011;54933;51.908;7.730;2023-06-22T08:15:04;2.67;;;1.53;;
13708;SDS011;54933;51.908;7.730;2023-06-22T08:17:30;1.87;;;1.73;;
13708;SDS011;54933;51.908;7.730;2023-06-22T08:19:56;2.00;;;1.63;;
13708;SDS011;54933;51.908;7.730;2023-06-22T08:22:21;5.20;;;1.83;;
13708;SDS011;54933;51.908;7.730;2023-06-22T08:24:47;2.73;;;1.23;;
13708;SDS011;54933;51.908;7.730;2023-06-22T08:27:12;1.70;;;1.50;;
13708;SDS011;54933;51.908;7.730;2023-06-22T08:29:38;1.87;;;1.70;;
13708;SDS011;54933;51.908;7.730;2023-06-22T08:32:04;1.73;;;1.63;;
13708;SDS011;54933;51.908;7.730;2023-06-22T08:34:30;2.93;;;1.53;;
13708;SDS011;54933;51.908;7.730;2023-06-22T08:36:55;2.83;;;1.87;;
13708;SDS011;54933;51.908;7.730;2023-06-22T08:39:20;1.93;;;1.83;;
13708;SDS011;54933;51.908;7.730;2023-06-22T08:41:46;1.10;;;1.10;;
13708;SDS011;54933;51.908;7.730;2023-06-22T08:44:12;3.10;;;1.47;;
13708;SDS011;54933;51.908;7.730;2023-06-22T08:46:38;6.00;;;2.30;;
13708;SDS011;54933;51.908;7.730;2023-06-22T08:49:05;9.23;;;2.53;;
13708;SDS011;54933;51.908;7.730;2023-06-22T08:51:31;3.03;;;2.27;;
13708;SDS011;54933;51.908;7.730;2023-06-22T08:53:56;3.30;;;2.07;;
13708;SDS011;54933;51.908;7.730;2023-06-22T08:56:21;12.57;;;2.60;;
13708;SDS011;54933;51.908;7.730;2023-06-22T08:58:46;12.50;;;3.53;;
13708;SDS011;54933;51.908;7.730;2023-06-22T09:01:12;10.53;;;2.90;;
13708;SDS011;54933;51.908;7.730;2023-06-22T09:03:37;18.00;;;2.83;;
13708;SDS011;54933;51.908;7.730;2023-06-22T09:06:02;15.80;;;2.23;;
13708;SDS011;54933;51.908;7.730;2023-06-22T09:08:28;11.67;;;2.53;;
13708;SDS011;54933;51.908;7.730;2023-06-22T09:10:53;6.87;;;2.27;;
13708;SDS011;54933;51.908;7.730;2023-06-22T09:13:19;7.67;;;2.20;;
13708;SDS011;54933;51.908;7.730;2023-06-22T09:15:44;2.67;;;1.93;;
13708;SDS011;54933;51.908;7.730;2023-06-22T09:18:13;10.33;;;2.27;;
13708;SDS011;54933;51.908;7.730;2023-06-22T09:20:39;9.97;;;2.63;;
13708;SDS011;54933;51.908;7.730;2023-06-22T09:23:04;7.50;;;2.20;;
13708;SDS011;54933;51.908;7.730;2023-06-22T09:25:29;7.83;;;1.80;;
13708;SDS011;54933;51.908;7.730;2023-06-22T09:27:54;10.57;;;2.20;;
13708;SDS011;54933;51.908;7.730;2023-06-22T09:30:20;14.27;;;2.03;;
13708;SDS011;54933;51.908;7.730;2023-06-22T09:32:45;2.57;;;1.60;;
13708;SDS011;54933;51.908;7.730;2023-06-22T09:35:10;6.40;;;2.03;;
13708;SDS011;54933;51.908;7.730;2023-06-22T09:37:38;5.03;;;2.13;;
13708;SDS011;54933;51.908;7.730;2023-06-22T09:40:03;2.37;;;2.10;;
13708;SDS011;54933;51.908;7.730;2023-06-22T09:42:37;5.20;;;1.83;;
13708;SDS011;54933;51.908;7.730;2023-06-22T09:45:04;3.10;;;1.80;;
13708;SDS011;54933;51.908;7.730;2023-06-22T09:47:30;5.20;;;1.57;;
13708;SDS011;54933;51.908;7.730;2023-06-22T09:49:55;4.67;;;1.53;;
13708;SDS011;54933;51.908;7.730;2023-06-22T09:52:21;2.37;;;1.57;;
13708;SDS011;54933;51.908;7.730;2023-06-22T09:54:46;4.10;;;1.60;;
13708;SDS011;54933;51.908;7.730;2023-06-22T09:57:11;2.07;;;1.83;;
13708;SDS011;54933;51.908;7.730;2023-06-22T09:59:37;3.20;;;1.77;;
13708;SDS011;54933;51.908;7.730;2023-06-22T10:02:03;4.53;;;2.03;;
13708;SDS011;54933;51.908;7.730;2023-06-22T10:04:28;2.27;;;1.67;;
13708;SDS011;54933;51.908;7.730;2023-06-22T10:06:53;1.80;;;1.70;;
13708;SDS011;54933;51.908;7.730;2023-06-22T10:09:19;6.33;;;1.90;;
13708;SDS011;54933;51.908;7.730;2023-06-22T10:11:44;2.70;;;1.63;;
13708;SDS011;54933;51.908;7.730;2023-06-22T10:14:09;6.60;;;2.00;;
13708;SDS011;54933;51.908;7.730;2023-06-22T10:16:36;3.70;;;2.10;;
13708;SDS011;54933;51.908;7.730;2023-06-22T10:19:01;3.93;;;2.00;;
13708;SDS011;54933;51.908;7.730;2023-06-22T10:21:26;3.73;;;1.90;;
13708;SDS011;54933;51.908;7.730;2023-06-22T10:23:53;1.93;;;1.80;;
13708;SDS011;54933;51.908;7.730;2023-06-22T10:26:19;1.80;;;1.57;;
13708;SDS011;54933;51.908;7.730;2023-06-22T10:28:44;2.07;;;1.77;;
13708;SDS011;54933;51.908;7.730;2023-06-22T10:31:09;1.77;;;1.47;;
13708;SDS011;54933;51.908;7.730;2023-06-22T10:33:34;4.63;;;1.90;;
13708;SDS011;54933;51.908;7.730;2023-06-22T10:36:00;4.17;;;1.70;;
13708;SDS011;54933;51.908;7.730;2023-06-22T10:38:25;17.77;;;5.17;;
13708;SDS011;54933;51.908;7.730;2023-06-22T10:40:50;9.23;;;3.33;;
13708;SDS011;54933;51.908;7.730;2023-06-22T10:43:16;2.47;;;2.27;;
13708;SDS011;54933;51.908;7.730;2023-06-22T10:45:41;4.70;;;2.77;;
13708;SDS011;54933;51.908;7.730;2023-06-22T10:48:06;2.23;;;2.03;;
13708;SDS011;54933;51.908;7.730;2023-06-22T10:50:31;2.63;;;2.27;;
13708;SDS011;54933;51.908;7.730;2023-06-22T10:52:57;2.73;;;2.50;;
13708;SDS011;54933;51.908;7.730;2023-06-22T10:55:22;4.20;;;2.80;;
13708;SDS011;54933;51.908;7.730;2023-06-22T10:57:48;3.03;;;2.43;;
13708;SDS011;54933;51.908;7.730;2023-06-22T11:00:13;3.17;;;2.13;;
13708;SDS011;54933;51.908;7.730;2023-06-22T11:02:40;3.90;;;2.83;;
13708;SDS011;54933;51.908;7.730;2023-06-22T11:05:05;3.03;;;2.27;;
13708;SDS011;54933;51.908;7.730;2023-06-22T11:07:31;3.13;;;2.27;;
13708;SDS011;54933;51.908;7.730;2023-06-22T11:09:57;2.67;;;2.03;;
13708;SDS011;54933;51.908;7.730;2023-06-22T11:12:23;4.70;;;2.47;;
13708;SDS011;54933;51.908;7.730;2023-06-22T11:14:48;2.33;;;2.13;;
13708;SDS011;54933;51.908;7.730;2023-06-22T11:17:16;3.80;;;2.00;;
13708;SDS011;54933;51.908;7.730;2023-06-22T11:19:41;2.20;;;2.00;;
13708;SDS011;54933;51.908;7.730;2023-06-22T11:22:07;2.23;;;2.03;;
13708;SDS011;54933;51.908;7.730;2023-06-22T11:24:32;2.43;;;2.17;;
13708;SDS011;54933;51.908;7.730;2023-06-22T11:26:57;2.40;;;2.20;;
13708;SDS011;54933;51.908;7.730;2023-06-22T11:29:22;3.27;;;2.40;;
13708;SDS011;54933;51.908;7.730;2023-06-22T11:31:48;3.67;;;2.40;;
13708;SDS011;54933;51.908;7.730;2023-06-22T11:34:13;2.60;;;2.40;;
13708;SDS011;54933;51.908;7.730;2023-06-22T11:36:38;2.47;;;2.27;;
13708;SDS011;54933;51.908;7.730;2023-06-22T11:39:03;2.40;;;2.20;;
13708;SDS011;54933;51.908;7.730;2023-06-22T11:41:30;2.20;;;2.00;;
13708;SDS011;54933;51.908;7.730;2023-06-22T11:43:55;2.27;;;2.17;;
13708;SDS011;54933;51.908;7.730;2023-06-22T11:46:20;2.77;;;1.73;;
13708;SDS011;54933;51.908;7.730;2023-06-22T11:48:46;3.37;;;2.43;;
13708;SDS011;54933;51.908;7.730;2023-06-22T11:51:11;1.80;;;1.70;;
13708;SDS011;54933;51.908;7.730;2023-06-22T11:53:36;2.10;;;2.00;;
13708;SDS011;54933;51.908;7.730;2023-06-22T11:56:01;2.33;;;2.13;;
13708;SDS011;54933;51.908;7.730;2023-06-22T11:58:27;2.20;;;2.00;;
13708;SDS011;54933;51.908;7.730;2023-06-22T12:00:53;2.33;;;2.00;;
13708;SDS011;54933;51.908;7.730;2023-06-22T12:03:18;3.27;;;2.40;;
13708;SDS011;54933;51.908;7.730;2023-06-22T12:05:44;42.17;;;5.03;;
13708;SDS011;54933;51.908;7.730;2023-06-22T12:08:09;40.57;;;5.27;;
13708;SDS011;54933;51.908;7.730;2023-06-22T12:10:35;32.60;;;5.20;;
13708;SDS011;54933;51.908;7.730;2023-06-22T12:13:00;23.17;;;4.43;;
13708;SDS011;54933;51.908;7.730;2023-06-22T12:15:26;22.70;;;3.33;;
13708;SDS011;54933;51.908;7.730;2023-06-22T12:17:51;16.93;;;3.50;;
13708;SDS011;54933;51.908;7.730;2023-06-22T12:20:17;15.40;;;3.53;;
13708;SDS011;54933;51.908;7.730;2023-06-22T12:22:43;18.67;;;3.17;;
13708;SDS011;54933;51.908;7.730;2023-06-22T12:25:08;17.20;;;3.20;;
13708;SDS011;54933;51.908;7.730;2023-06-22T12:27:34;7.03;;;3.00;;
13708;SDS011;54933;51.908;7.730;2023-06-22T12:30:00;6.80;;;2.93;;
13708;SDS011;54933;51.908;7.730;2023-06-22T12:32:25;13.10;;;3.23;;
13708;SDS011;54933;51.908;7.730;2023-06-22T12:34:51;32.13;;;4.30;;
13708;SDS011;54933;51.908;7.730;2023-06-22T12:37:16;30.60;;;4.57;;
13708;SDS011;54933;51.908;7.730;2023-06-22T12:39:41;21.27;;;4.77;;
13708;SDS011;54933;51.908;7.730;2023-06-22T12:42:07;19.50;;;4.27;;
13708;SDS011;54933;51.908;7.730;2023-06-22T12:44:34;24.77;;;5.33;;
13708;SDS011;54933;51.908;7.730;2023-06-22T12:46:59;21.27;;;4.10;;
13708;SDS011;54933;51.908;7.730;2023-06-22T12:49:25;19.20;;;3.83;;
13708;SDS011;54933;51.908;7.730;2023-06-22T12:51:50;5.87;;;2.90;;
13708;SDS011;54933;51.908;7.730;2023-06-22T12:54:15;10.53;;;2.97;;
13708;SDS011;54933;51.908;7.730;2023-06-22T12:56:40;13.87;;;3.13;;
13708;SDS011;54933;51.908;7.730;2023-06-22T12:59:08;12.47;;;3.20;;
13708;SDS011;54933;51.908;7.730;2023-06-22T13:01:34;6.87;;;2.80;;
13708;SDS011;54933;51.908;7.730;2023-06-22T13:03:59;4.43;;;2.63;;
13708;SDS011;54933;51.908;7.730;2023-06-22T13:06:24;9.63;;;3.10;;
13708;SDS011;54933;51.908;7.730;2023-06-22T13:08:50;12.67;;;3.50;;
13708;SDS011;54933;51.908;7.730;2023-06-22T13:11:16;5.60;;;3.10;;
13708;SDS011;54933;51.908;7.730;2023-06-22T13:13:41;7.20;;;2.30;;
13708;SDS011;54933;51.908;7.730;2023-06-22T13:16:08;5.87;;;3.03;;
13708;SDS011;54933;51.908;7.730;2023-06-22T13:18:34;4.37;;;2.40;;
13708;SDS011;54933;51.908;7.730;2023-06-22T13:21:00;8.00;;;2.90;;
13708;SDS011;54933;51.908;7.730;2023-06-22T13:23:26;6.37;;;2.63;;
13708;SDS011;54933;51.908;7.730;2023-06-22T13:25:52;4.13;;;2.30;;
13708;SDS011;54933;51.908;7.730;2023-06-22T13:28:17;3.93;;;2.60;;
13708;SDS011;54933;51.908;7.730;2023-06-22T13:30:42;5.83;;;3.17;;
13708;SDS011;54933;51.908;7.730;2023-06-22T13:33:08;9.87;;;2.73;;
13708;SDS011;54933;51.908;7.730;2023-06-22T13:35:33;10.43;;;3.50;;
13708;SDS011;54933;51.908;7.730;2023-06-22T13:38:00;5.53;;;2.77;;
13708;SDS011;54933;51.908;7.730;2023-06-22T13:40:25;6.40;;;3.43;;
13708;SDS011;54933;51.908;7.730;2023-06-22T13:42:50;5.07;;;2.40;;
13708;SDS011;54933;51.908;7.730;2023-06-22T13:45:16;8.73;;;3.10;;
13708;SDS011;54933;51.908;7.730;2023-06-22T13:47:42;8.37;;;3.20;;
13708;SDS011;54933;51.908;7.730;2023-06-22T13:50:07;9.47;;;2.70;;
13708;SDS011;54933;51.908;7.730;2023-06-22T13:52:33;5.60;;;2.47;;
13708;SDS011;54933;51.908;7.730;2023-06-22T13:54:58;5.30;;;2.70;;
13708;SDS011;54933;51.908;7.730;2023-06-22T13:57:24;4.40;;;2.70;;
13708;SDS011;54933;51.908;7.730;2023-06-22T13:59:49;3.70;;;2.53;;
13708;SDS011;54933;51.908;7.730;2023-06-22T14:02:14;3.83;;;2.50;;
13708;SDS011;54933;51.908;7.730;2023-06-22T14:04:40;30.40;;;6.43;;
13708;SDS011;54933;51.908;7.730;2023-06-22T14:07:05;191.90;;;19.27;;
13708;SDS011;54933;51.908;7.730;2023-06-22T14:09:30;124.27;;;12.50;;
13708;SDS011;54933;51.908;7.730;2023-06-22T14:11:56;101.13;;;10.43;;
13708;SDS011;54933;51.908;7.730;2023-06-22T14:14:21;67.87;;;9.20;;
13708;SDS011;54933;51.908;7.730;2023-06-22T14:16:46;55.90;;;7.73;;
13708;SDS011;54933;51.908;7.730;2023-06-22T14:19:12;57.53;;;9.20;;
13708;SDS011;54933;51.908;7.730;2023-06-22T14:21:38;58.90;;;6.83;;
13708;SDS011;54933;51.908;7.730;2023-06-22T14:24:03;46.37;;;6.20;;
13708;SDS011;54933;51.908;7.730;2023-06-22T14:26:29;28.53;;;5.77;;
13708;SDS011;54933;51.908;7.730;2023-06-22T14:28:54;46.27;;;7.23;;
13708;SDS011;54933;51.908;7.730;2023-06-22T14:31:21;32.47;;;5.17;;
13708;SDS011;54933;51.908;7.730;2023-06-22T14:33:47;33.17;;;6.20;;
13708;SDS011;54933;51.908;7.730;2023-06-22T14:36:14;31.13;;;5.27;;
13708;SDS011;54933;51.908;7.730;2023-06-22T14:38:43;23.80;;;4.77;;
13708;SDS011;54933;51.908;7.730;2023-06-22T14:41:08;21.90;;;4.43;;
13708;SDS011;54933;51.908;7.730;2023-06-22T14:43:34;20.30;;;4.47;;
13708;SDS011;54933;51.908;7.730;2023-06-22T14:45:59;22.63;;;4.07;;